Time;durP1;ratioP1;P1;durP2;ratioP2;P2;SDS_P1;SDS_P2;PMS_P1;PMS_P2;Temp;Humidity;BMP_temperature;BMP_pressure;BME280_temperature;BME280_humidity;BME280_pressure;Samples;Min_cycle;Max_cycle;Signal;HPM_P1;HPM_P2
2023/03/13 00:01:20;;;;;;;15.03;5.17;;;10.40;1.00;;;;;;5024874;28;20589;-70
2023/03/13 00:03:46;;;;;;;13.43;4.80;;;10.40;1.00;;;;;;5021412;28;20210;-70
2023/03/13 00:06:12;;;;;;;12.30;4.83;;;10.50;1.00;;;;;;5028011;28;20799;-70
2023/03/13 00:08:38;;;;;;;17.07;5.27;;;11.50;1.00;;;;;;5027873;28;20847;-69
2023/03/13 00:11:05;;;;;;;11.27;4.73;;;10.50;1.00;;;;;;5026257;28;20595;-70
2023/03/13 00:13:31;;;;;;;13.07;4.50;;;10.50;1.00;;;;;;5021250;28;20491;-69
2023/03/13 00:16:06;;;;;;;17.50;4.77;;;10.50;1.00;;;;;;5030023;28;20928;-70
2023/03/13 00:18:31;;;;;;;12.83;4.20;;;10.50;1.00;;;;;;5035178;28;20193;-69
2023/03/13 00:21:02;;;;;;;10.73;4.20;;;10.50;1.00;;;;;;5014490;28;20468;-70
2023/03/13 00:23:28;;;;;;;17.50;3.93;;;10.50;1.00;;;;;;5026853;28;20703;-70
2023/03/13 00:26:03;;;;;;;12.70;4.17;;;10.50;1.00;;;;;;5024081;28;20432;-70
2023/03/13 00:28:31;;;;;;;12.60;3.60;;;10.50;1.00;;;;;;5027399;28;20446;-69
2023/03/13 00:31:04;;;;;;;10.73;3.43;;;10.60;1.00;;;;;;5025210;28;20464;-70
2023/03/13 00:33:34;;;;;;;10.37;3.00;;;10.80;1.00;;;;;;5028535;28;20456;-70
2023/03/13 00:36:02;;;;;;;11.50;3.10;;;10.90;1.00;;;;;;5029826;28;20523;-70
2023/03/13 00:38:29;;;;;;;12.73;3.37;;;11.00;1.00;;;;;;5027681;28;20924;-69
2023/03/13 00:41:12;;;;;;;7.50;2.77;;;11.10;1.00;;;;;;5029758;28;20538;-70
2023/03/13 00:43:39;;;;;;;10.63;3.03;;;11.10;1.00;;;;;;5017782;28;21180;-70
2023/03/13 00:46:06;;;;;;;9.20;2.73;;;11.20;1.00;;;;;;5029134;28;20798;-70
2023/03/13 00:48:32;;;;;;;13.73;3.67;;;11.20;1.00;;;;;;5027159;28;20514;-69
2023/03/13 00:50:58;;;;;;;14.50;3.27;;;11.20;1.00;;;;;;5020763;28;20830;-70
2023/03/13 00:53:24;;;;;;;11.60;3.33;;;11.30;1.00;;;;;;5016918;28;20460;-69
2023/03/13 00:55:55;;;;;;;9.07;3.50;;;11.30;1.00;;;;;;5024966;28;21077;-69
2023/03/13 00:58:22;;;;;;;12.10;3.17;;;11.40;1.00;;;;;;5026323;28;20533;-70
2023/03/13 01:00:47;;;;;;;12.27;3.67;;;11.40;1.00;;;;;;5028266;28;20468;-70
2023/03/13 01:03:13;;;;;;;13.07;3.53;;;11.50;1.00;;;;;;5022233;28;20990;-70
2023/03/13 01:05:39;;;;;;;14.80;3.30;;;11.50;1.00;;;;;;5026605;28;20732;-70
2023/03/13 01:08:04;;;;;;;12.23;3.80;;;11.50;1.00;;;;;;5020454;28;20664;-70
2023/03/13 01:10:30;;;;;;;13.00;3.53;;;11.50;1.00;;;;;;5027230;28;20664;-70
2023/03/13 01:12:55;;;;;;;13.33;3.77;;;11.50;1.00;;;;;;5023325;28;20497;-70
2023/03/13 01:15:21;;;;;;;8.53;3.23;;;11.50;1.00;;;;;;5021843;28;20197;-70
2023/03/13 01:17:47;;;;;;;11.63;3.27;;;11.50;1.00;;;;;;5026242;28;20603;-69
2023/03/13 01:20:12;;;;;;;9.00;3.00;;;11.50;1.00;;;;;;5017625;28;20224;-71
2023/03/13 01:22:38;;;;;;;16.43;4.43;;;11.50;1.00;;;;;;5011775;28;20229;-69
2023/03/13 01:25:04;;;;;;;13.83;4.40;;;11.50;1.00;;;;;;5026654;28;20239;-69
2023/03/13 01:27:30;;;;;;;11.13;3.60;;;11.40;1.00;;;;;;5024939;28;20629;-70
2023/03/13 01:29:55;;;;;;;14.07;3.97;;;11.40;1.00;;;;;;5026712;28;20420;-70
2023/03/13 01:32:21;;;;;;;13.43;4.43;;;11.30;1.00;;;;;;5010022;28;20210;-70
2023/03/13 01:34:47;;;;;;;13.00;4.27;;;11.30;1.00;;;;;;5013105;28;20185;-68
2023/03/13 01:37:12;;;;;;;11.00;4.30;;;11.30;1.00;;;;;;5023534;28;20559;-69
2023/03/13 01:39:38;;;;;;;16.13;4.37;;;11.20;1.00;;;;;;5015383;28;20193;-70
2023/03/13 01:42:04;;;;;;;16.13;3.50;;;11.20;1.00;;;;;;5023126;28;20303;-71
2023/03/13 01:44:47;;;;;;;8.77;3.33;;;11.20;1.00;;;;;;5023302;28;20201;-71
2023/03/13 01:47:13;;;;;;;9.50;2.93;;;11.20;1.00;;;;;;5017136;28;20946;-70
2023/03/13 01:49:38;;;;;;;9.43;2.80;;;11.20;1.00;;;;;;5022173;28;20437;-69
2023/03/13 01:52:13;;;;;;;9.70;2.90;;;11.30;1.00;;;;;;5024152;28;20201;-70
2023/03/13 01:54:50;;;;;;;8.73;2.97;;;11.40;1.00;;;;;;5020865;28;20193;-70
2023/03/13 01:57:24;;;;;;;8.97;2.90;;;11.40;1.00;;;;;;5025933;28;20493;-70
2023/03/13 02:00:06;;;;;;;10.00;3.17;;;11.50;1.00;;;;;;5028160;28;20439;-69
2023/03/13 02:02:34;;;;;;;7.60;2.63;;;11.50;1.00;;;;;;5027604;28;20444;-69
2023/03/13 02:05:02;;;;;;;8.00;2.70;;;11.50;1.00;;;;;;5028047;28;20515;-70
2023/03/13 02:07:33;;;;;;;9.73;3.00;;;11.50;1.00;;;;;;5027258;28;20921;-70
2023/03/13 02:09:59;;;;;;;11.47;3.10;;;12.60;1.00;;;;;;5039003;28;20436;-71
2023/03/13 02:12:32;;;;;;;11.40;3.27;;;11.60;1.00;;;;;;5027154;28;20469;-71
2023/03/13 02:15:03;;;;;;;8.90;2.53;;;11.60;1.00;;;;;;5022060;28;20822;-69
2023/03/13 02:17:29;;;;;;;10.20;3.50;;;11.60;1.00;;;;;;5025185;28;20440;-70
2023/03/13 02:19:55;;;;;;;8.30;2.93;;;11.50;1.00;;;;;;5026163;28;20451;-70
2023/03/13 02:22:53;;;;;;;9.93;2.40;;;11.60;1.00;;;;;;5034467;28;20452;-70
2023/03/13 02:25:24;;;;;;;8.27;2.30;;;11.60;1.00;;;;;;5029881;28;20206;-70
2023/03/13 02:28:32;;;;;;;7.47;2.63;;;11.70;1.00;;;;;;5008966;28;20491;-71
2023/03/13 02:30:59;;;;;;;9.67;2.47;;;11.70;1.00;;;;;;5015630;28;20532;-69
2023/03/13 02:33:36;;;;;;;6.07;2.20;;;11.70;1.00;;;;;;5028504;28;20547;-70
2023/03/13 02:36:02;;;;;;;6.20;2.30;;;11.80;1.00;;;;;;5021902;28;20441;-71
2023/03/13 02:38:30;;;;;;;7.57;2.37;;;11.90;1.00;;;;;;5030057;28;20432;-69
2023/03/13 02:40:58;;;;;;;8.57;2.40;;;11.90;1.00;;;;;;5030275;28;20479;-69
2023/03/13 02:43:31;;;;;;;8.13;2.87;;;12.00;1.00;;;;;;5026067;28;20466;-70
2023/03/13 02:46:02;;;;;;;8.23;2.47;;;12.00;1.00;;;;;;5026087;28;20444;-70
2023/03/13 02:48:35;;;;;;;6.40;2.10;;;12.10;1.00;;;;;;5029147;28;20943;-70
2023/03/13 02:51:08;;;;;;;7.97;2.63;;;12.10;1.00;;;;;;5028824;28;20441;-70
2023/03/13 02:53:34;;;;;;;4.93;1.83;;;12.10;1.00;;;;;;5019148;28;20527;-70
2023/03/13 02:56:00;;;;;;;6.67;2.10;;;12.10;1.00;;;;;;5031148;28;20458;-70
2023/03/13 02:58:25;;;;;;;6.47;2.20;;;12.20;1.00;;;;;;5030257;28;20444;-69
2023/03/13 03:00:52;;;;;;;5.40;1.93;;;12.20;1.00;;;;;;5031534;28;20220;-69
2023/03/13 03:03:17;;;;;;;5.93;2.00;;;12.30;1.00;;;;;;5030025;28;20209;-69
2023/03/13 03:05:43;;;;;;;13.90;2.27;;;12.20;1.00;;;;;;5027778;28;20539;-70
2023/03/13 03:08:08;;;;;;;5.93;1.80;;;12.30;1.00;;;;;;5026327;28;20189;-70
2023/03/13 03:10:36;;;;;;;4.43;1.67;;;12.30;1.00;;;;;;5031182;28;20202;-71
2023/03/13 03:13:02;;;;;;;8.30;2.20;;;12.70;1.00;;;;;;5026329;28;20285;-70
2023/03/13 03:15:27;;;;;;;6.53;2.40;;;12.40;1.00;;;;;;5030725;28;20926;-70
2023/03/13 03:17:53;;;;;;;5.90;2.63;;;12.40;1.00;;;;;;5020305;28;20444;-70
2023/03/13 03:20:19;;;;;;;7.07;1.87;;;12.50;1.00;;;;;;5022652;28;20206;-70
2023/03/13 03:22:44;;;;;;;5.87;2.13;;;12.50;1.00;;;;;;5021014;28;20539;-70
2023/03/13 03:25:10;;;;;;;6.80;2.20;;;12.50;1.00;;;;;;5027661;28;20820;-70
2023/03/13 03:27:36;;;;;;;7.73;2.50;;;12.50;1.00;;;;;;5028421;28;20197;-71
2023/03/13 03:30:05;;;;;;;4.37;1.50;;;12.50;1.00;;;;;;5028468;28;20185;-70
2023/03/13 03:32:31;;;;;;;9.20;2.00;;;12.50;1.00;;;;;;5013798;28;20452;-70
2023/03/13 03:34:57;;;;;;;5.67;1.77;;;12.50;1.00;;;;;;5029275;28;20779;-69
2023/03/13 03:37:22;;;;;;;4.00;1.40;;;12.60;1.00;;;;;;5027275;28;20174;-69
2023/03/13 03:39:48;;;;;;;8.57;2.43;;;12.60;1.00;;;;;;5031316;28;20578;-70
2023/03/13 03:42:13;;;;;;;4.77;2.00;;;12.60;1.00;;;;;;5029864;28;20301;-71
2023/03/13 03:44:39;;;;;;;6.60;1.47;;;12.60;1.00;;;;;;5022429;28;20205;-70
2023/03/13 03:47:04;;;;;;;7.23;1.90;;;12.60;1.00;;;;;;5026001;28;20269;-70
2023/03/13 03:49:30;;;;;;;4.67;1.40;;;12.60;1.00;;;;;;5025603;28;20182;-69
2023/03/13 03:51:55;;;;;;;4.40;1.80;;;12.70;1.00;;;;;;5011010;28;20186;-70
2023/03/13 03:54:21;;;;;;;6.97;1.60;;;12.70;1.00;;;;;;5038894;28;20236;-69
2023/03/13 03:56:46;;;;;;;2.83;1.50;;;12.70;1.00;;;;;;5028792;28;20186;-69
2023/03/13 03:59:12;;;;;;;3.47;1.60;;;12.70;1.00;;;;;;5027962;28;20207;-70
2023/03/13 04:01:37;;;;;;;4.17;1.50;;;12.70;1.00;;;;;;5028128;28;20687;-70
2023/03/13 04:04:03;;;;;;;4.70;1.60;;;12.70;1.00;;;;;;5030400;28;20206;-69
2023/03/13 04:06:29;;;;;;;2.17;1.30;;;12.70;1.00;;;;;;5025133;28;20178;-70
2023/03/13 04:08:55;;;;;;;4.67;1.40;;;12.70;1.00;;;;;;5028807;28;20676;-71
2023/03/13 04:11:20;;;;;;;4.83;1.60;;;13.10;1.00;;;;;;5029115;28;20444;-68
2023/03/13 04:13:46;;;;;;;4.83;1.80;;;12.70;1.00;;;;;;5030417;28;20684;-70
2023/03/13 04:16:11;;;;;;;5.70;1.50;;;12.70;1.00;;;;;;5027523;28;20193;-70
2023/03/13 04:18:37;;;;;;;4.00;1.50;;;12.70;1.00;;;;;;5027722;28;20185;-69
2023/03/13 04:21:04;;;;;;;4.27;1.30;;;12.70;1.00;;;;;;5026095;28;20214;-70
2023/03/13 04:23:29;;;;;;;2.80;1.40;;;12.80;1.00;;;;;;5030092;28;20201;-70
2023/03/13 04:25:55;;;;;;;3.30;1.40;;;12.60;1.00;;;;;;5026139;28;20441;-70
2023/03/13 04:28:20;;;;;;;3.00;1.30;;;12.70;1.00;;;;;;5029682;28;20178;-68
2023/03/13 04:30:46;;;;;;;3.90;1.33;;;;;;;;;;5020899;28;20336;-71
2023/03/13 04:33:11;;;;;;;3.10;1.73;;;12.60;1.00;;;;;;5025653;28;20208;-69
2023/03/13 04:35:37;;;;;;;7.80;1.60;;;12.60;1.00;;;;;;5028537;28;20256;-70
2023/03/13 04:38:02;;;;;;;2.30;1.47;;;12.70;1.00;;;;;;5030332;28;20190;-70
2023/03/13 04:40:28;;;;;;;3.90;1.60;;;12.60;1.00;;;;;;5024443;28;20216;-70
2023/03/13 04:42:54;;;;;;;2.80;1.40;;;12.60;1.00;;;;;;5027009;28;20213;-69
2023/03/13 04:45:19;;;;;;;4.03;1.53;;;12.70;1.00;;;;;;5016512;28;20189;-69
2023/03/13 04:47:45;;;;;;;2.33;1.40;;;12.80;1.00;;;;;;5022757;28;20179;-71
2023/03/13 04:50:11;;;;;;;2.23;1.30;;;12.70;1.00;;;;;;5013471;28;20596;-70
2023/03/13 04:52:37;;;;;;;4.27;1.37;;;12.70;1.00;;;;;;5011135;28;20548;-69
2023/03/13 04:55:02;;;;;;;5.73;1.60;;;12.70;1.00;;;;;;5022867;28;20180;-70
2023/03/13 04:57:28;;;;;;;1.80;1.27;;;12.70;1.00;;;;;;5029429;28;20722;-70
2023/03/13 04:59:54;;;;;;;2.87;1.43;;;12.70;1.00;;;;;;5025389;28;20185;-68
2023/03/13 05:02:19;;;;;;;2.97;1.50;;;12.70;1.00;;;;;;5018161;28;20205;-69
2023/03/13 05:04:45;;;;;;;5.17;1.70;;;12.70;1.00;;;;;;5027169;28;20197;-69
2023/03/13 05:07:10;;;;;;;4.33;1.40;;;12.70;1.00;;;;;;5029546;28;20660;-70
2023/03/13 05:09:36;;;;;;;7.50;1.70;;;12.80;1.00;;;;;;5026182;28;20268;-71
2023/03/13 05:12:01;;;;;;;2.67;1.50;;;12.70;1.00;;;;;;5029339;28;20268;-70
2023/03/13 05:14:27;;;;;;;3.90;1.63;;;12.70;1.00;;;;;;5025421;28;20272;-70
2023/03/13 05:16:52;;;;;;;3.60;1.60;;;12.70;1.00;;;;;;5026554;28;20273;-70
2023/03/13 05:19:18;;;;;;;5.63;1.60;;;12.80;1.00;;;;;;5019866;28;20703;-70
2023/03/13 05:21:43;;;;;;;3.67;1.50;;;12.80;1.00;;;;;;5028843;28;20208;-69
2023/03/13 05:24:09;;;;;;;2.80;1.50;;;12.80;1.00;;;;;;5025797;28;20205;-69
2023/03/13 05:26:34;;;;;;;2.90;1.30;;;12.80;1.00;;;;;;5026218;28;20547;-70
2023/03/13 05:29:00;;;;;;;2.30;1.50;;;12.80;1.00;;;;;;5023910;28;20833;-70
2023/03/13 05:31:25;;;;;;;2.77;1.30;;;14.20;1.00;;;;;;5024285;28;20193;-70
2023/03/13 05:33:51;;;;;;;3.07;1.53;;;13.60;1.00;;;;;;5021349;28;20210;-70
2023/03/13 05:36:16;;;;;;;4.70;1.40;;;12.80;1.00;;;;;;5014085;28;20216;-70
2023/03/13 05:38:41;;;;;;;2.07;1.30;;;12.80;1.00;;;;;;5028103;28;20181;-70
2023/03/13 05:41:07;;;;;;;2.70;1.33;;;12.90;1.00;;;;;;5027576;28;20205;-69
2023/03/13 05:43:33;;;;;;;2.73;1.53;;;13.10;1.00;;;;;;5028693;28;20210;-70
2023/03/13 05:45:58;;;;;;;9.10;1.73;;;12.90;1.00;;;;;;5024752;28;20671;-69
2023/03/13 05:48:24;;;;;;;3.97;1.50;;;12.90;1.00;;;;;;5015039;28;20700;-67
2023/03/13 05:50:49;;;;;;;3.47;1.40;;;12.90;1.00;;;;;;5010256;28;20245;-70
2023/03/13 05:53:15;;;;;;;2.70;1.40;;;12.90;1.00;;;;;;5022834;28;20243;-70
2023/03/13 05:55:41;;;;;;;3.60;1.73;;;13.30;1.00;;;;;;5022638;28;20656;-70
2023/03/13 05:58:06;;;;;;;5.33;1.70;;;13.00;1.00;;;;;;5022483;28;20194;-70
2023/03/13 06:00:32;;;;;;;1.90;1.40;;;;;;;;;;5021276;28;20913;-69
2023/03/13 06:02:58;;;;;;;2.40;1.20;;;13.00;1.00;;;;;;5030337;28;20205;-70
2023/03/13 06:05:23;;;;;;;2.00;1.20;;;13.10;1.00;;;;;;5030504;28;20424;-70
2023/03/13 06:07:49;;;;;;;2.63;1.30;;;13.10;1.00;;;;;;5028131;28;20190;-71
2023/03/13 06:10:15;;;;;;;5.13;1.60;;;13.10;1.00;;;;;;5032205;28;20235;-71
2023/03/13 06:12:40;;;;;;;1.50;1.13;;;13.20;1.00;;;;;;5024091;28;20210;-69
2023/03/13 06:15:08;;;;;;;2.40;1.20;;;13.20;1.00;;;;;;5031215;28;21462;-70
2023/03/13 06:17:34;;;;;;;2.00;1.20;;;13.20;1.00;;;;;;5025510;28;20177;-71
2023/03/13 06:19:59;;;;;;;4.57;1.50;;;13.30;1.00;;;;;;5022260;28;20548;-71
2023/03/13 06:22:25;;;;;;;5.63;1.40;;;13.20;1.00;;;;;;5016387;28;20248;-70
2023/03/13 06:24:50;;;;;;;5.03;1.20;;;13.20;1.00;;;;;;5026006;28;20251;-70
2023/03/13 06:27:16;;;;;;;2.03;1.03;;;13.20;1.00;;;;;;5026193;28;20185;-70
2023/03/13 06:29:42;;;;;;;1.80;1.10;;;13.20;1.00;;;;;;5017296;28;20186;-70
2023/03/13 06:32:07;;;;;;;1.60;1.40;;;13.30;1.00;;;;;;5023176;28;20217;-70
2023/03/13 06:34:33;;;;;;;2.23;1.40;;;13.20;1.00;;;;;;5026964;28;20185;-70
2023/03/13 06:36:59;;;;;;;2.13;1.30;;;13.20;1.00;;;;;;5026133;28;20664;-71
2023/03/13 06:39:25;;;;;;;2.30;1.03;;;13.20;1.00;;;;;;5020966;28;20331;-69
2023/03/13 06:41:50;;;;;;;1.40;1.10;;;13.20;1.00;;;;;;5013159;28;20547;-72
2023/03/13 06:44:16;;;;;;;2.80;1.40;;;13.20;1.00;;;;;;5023689;28;20194;-70
2023/03/13 06:46:41;;;;;;;2.23;1.10;;;13.30;1.00;;;;;;5025249;28;20632;-70
2023/03/13 06:49:07;;;;;;;2.20;1.20;;;13.30;1.00;;;;;;5020838;28;20312;-71
2023/03/13 06:51:33;;;;;;;2.70;1.40;;;16.20;1.00;;;;;;5021989;28;20198;-70
2023/03/13 06:54:00;;;;;;;2.63;1.10;;;13.30;1.00;;;;;;5020120;28;20328;-68
2023/03/13 06:56:25;;;;;;;1.60;1.00;;;13.20;1.00;;;;;;5043202;22;20480;-71
2023/03/13 06:58:51;;;;;;;2.63;1.20;;;13.30;1.00;;;;;;5029029;28;20186;-68
2023/03/13 07:01:17;;;;;;;2.40;1.10;;;13.30;1.00;;;;;;5028429;28;20206;-71
2023/03/13 07:03:43;;;;;;;2.10;1.20;;;13.30;1.00;;;;;;5031586;28;20181;-71
2023/03/13 07:06:12;;;;;;;1.43;1.00;;;13.40;1.00;;;;;;5030352;28;20848;-71
2023/03/13 07:08:38;;;;;;;2.07;1.00;;;13.40;1.00;;;;;;5031499;28;20490;-70
2023/03/13 07:11:09;;;;;;;1.93;1.00;;;13.50;1.00;;;;;;5031764;28;20436;-69
2023/03/13 07:13:35;;;;;;;2.23;1.20;;;13.60;1.00;;;;;;5031237;28;20468;-69
2023/03/13 07:16:05;;;;;;;2.23;1.40;;;13.60;1.00;;;;;;5031424;28;20510;-69
2023/03/13 07:18:31;;;;;;;3.00;1.57;;;13.60;1.00;;;;;;5031712;28;20441;-69
2023/03/13 07:20:59;;;;;;;1.53;0.90;;;13.60;1.00;;;;;;5031383;28;20873;-69
2023/03/13 07:23:27;;;;;;;1.10;1.00;;;13.70;1.00;;;;;;5029961;28;20420;-70
2023/03/13 07:26:01;;;;;;;1.87;1.10;;;13.80;1.00;;;;;;5020308;28;20826;-70
2023/03/13 07:28:29;;;;;;;1.33;1.13;;;13.80;1.00;;;;;;5031045;28;20421;-69
2023/03/13 07:31:01;;;;;;;1.20;1.10;;;13.90;1.00;;;;;;5031382;28;20424;-70
2023/03/13 07:33:27;;;;;;;2.40;1.10;;;13.90;1.00;;;;;;5031530;28;20416;-70
2023/03/13 07:35:52;;;;;;;1.63;1.00;;;14.00;1.00;;;;;;5030881;28;20532;-69
2023/03/13 07:38:19;;;;;;;3.93;1.20;;;14.00;1.00;;;;;;5031395;28;20186;-69
2023/03/13 07:40:51;;;;;;;3.47;1.20;;;14.10;1.00;;;;;;5030746;28;20297;-69
2023/03/13 07:43:18;;;;;;;1.80;1.13;;;14.20;1.00;;;;;;5031363;28;20421;-70
2023/03/13 07:46:00;;;;;;;1.57;1.07;;;14.40;1.00;;;;;;5030813;28;20474;-69
2023/03/13 07:48:34;;;;;;;3.10;1.13;;;14.60;1.00;;;;;;5031321;28;20424;-69
2023/03/13 07:50:59;;;;;;;1.43;0.90;;;14.80;1.00;;;;;;5030933;28;20424;-69
2023/03/13 07:53:26;;;;;;;1.47;1.20;;;14.90;1.00;;;;;;5031087;28;20473;-69
2023/03/13 07:55:56;;;;;;;2.07;1.10;;;15.00;1.00;;;;;;5030203;28;20224;-69
2023/03/13 07:58:23;;;;;;;1.93;1.07;;;14.80;1.00;;;;;;5030962;28;20431;-69
2023/03/13 08:00:49;;;;;;;1.70;1.10;;;14.90;1.00;;;;;;5030326;28;20472;-69
2023/03/13 08:03:14;;;;;;;1.30;1.00;;;14.80;1.00;;;;;;5031001;28;20424;-69
2023/03/13 08:05:40;;;;;;;3.83;1.83;;;14.80;1.00;;;;;;5028930;28;20671;-70
2023/03/13 08:08:06;;;;;;;1.93;1.20;;;14.70;1.00;;;;;;5030837;28;20182;-69
2023/03/13 08:10:31;;;;;;;1.23;1.13;;;14.60;1.00;;;;;;5030211;28;20796;-69
2023/03/13 08:12:57;;;;;;;1.73;0.90;;;14.70;1.00;;;;;;5030696;28;20190;-69
2023/03/13 08:15:25;;;;;;;2.60;1.20;;;14.70;1.00;;;;;;5030526;28;20217;-69
2023/03/13 08:17:51;;;;;;;2.20;1.40;;;14.70;1.00;;;;;;5030301;28;20189;-70
2023/03/13 08:20:20;;;;;;;2.60;1.40;;;14.70;1.00;;;;;;5030334;28;20962;-70
2023/03/13 08:22:46;;;;;;;1.30;1.20;;;14.60;1.00;;;;;;5030309;28;20432;-69
2023/03/13 08:25:12;;;;;;;1.97;1.47;;;14.60;1.00;;;;;;5032231;28;20433;-70
2023/03/13 08:27:38;;;;;;;3.77;1.43;;;14.70;1.00;;;;;;5034060;28;20664;-69
2023/03/13 08:30:04;;;;;;;1.33;1.23;;;14.70;1.00;;;;;;5029073;28;20431;-69
2023/03/13 08:32:32;;;;;;;1.63;1.50;;;14.80;1.00;;;;;;5030428;28;20232;-69
2023/03/13 08:34:58;;;;;;;1.60;1.50;;;14.70;1.00;;;;;;5030083;28;20420;-70
2023/03/13 08:37:23;;;;;;;1.80;1.70;;;14.80;1.00;;;;;;5030331;28;20980;-69
2023/03/13 08:39:49;;;;;;;1.60;1.50;;;14.80;1.00;;;;;;5029546;28;20412;-69
2023/03/13 08:42:14;;;;;;;3.70;2.00;;;14.90;1.00;;;;;;5030197;28;20209;-69
2023/03/13 08:44:40;;;;;;;1.80;1.50;;;15.00;1.00;;;;;;5029474;28;20220;-69
2023/03/13 08:47:06;;;;;;;1.63;1.50;;;15.00;1.00;;;;;;5026956;28;20280;-69
2023/03/13 08:49:32;;;;;;;1.60;1.47;;;15.00;1.00;;;;;;5028621;28;20185;-69
2023/03/13 08:51:57;;;;;;;1.43;1.23;;;14.90;1.00;;;;;;5028267;28;20436;-69
2023/03/13 08:54:23;;;;;;;1.67;1.27;;;14.90;1.00;;;;;;5030201;28;20194;-69
2023/03/13 08:56:48;;;;;;;1.40;1.10;;;14.90;1.00;;;;;;5029196;28;20252;-69
2023/03/13 08:59:14;;;;;;;1.73;1.20;;;14.80;1.00;;;;;;5030093;28;20197;-69
2023/03/13 09:01:40;;;;;;;1.30;1.10;;;14.90;1.00;;;;;;5029458;28;20579;-69
2023/03/13 09:04:06;;;;;;;1.50;1.20;;;15.00;1.00;;;;;;5029869;28;20188;-70
2023/03/13 09:06:36;;;;;;;1.90;1.17;;;15.00;1.00;;;;;;5029646;28;20519;-69
2023/03/13 09:09:03;;;;;;;1.70;1.30;;;15.00;1.00;;;;;;5021805;28;20511;-69
2023/03/13 09:11:29;;;;;;;2.70;1.33;;;15.40;1.00;;;;;;5028324;28;20838;-69
2023/03/13 09:13:57;;;;;;;1.60;1.10;;;14.90;1.00;;;;;;5029493;28;20435;-69
2023/03/13 09:16:25;;;;;;;3.87;1.30;;;15.00;1.00;;;;;;5029511;28;20937;-69
2023/03/13 09:18:51;;;;;;;2.03;1.20;;;15.00;1.00;;;;;;5029405;28;20436;-69
2023/03/13 09:21:23;;;;;;;1.40;1.17;;;15.10;1.00;;;;;;5029457;28;20456;-69
2023/03/13 09:23:50;;;;;;;2.50;1.30;;;15.50;1.00;;;;;;5029488;28;20520;-69
2023/03/13 09:26:16;;;;;;;2.13;1.30;;;16.10;1.00;;;;;;5029359;28;20436;-69
2023/03/13 09:28:42;;;;;;;2.43;1.10;;;16.60;1.00;;;;;;5027605;28;20440;-70
2023/03/13 09:31:10;;;;;;;2.50;1.20;;;16.60;1.00;;;;;;5029532;28;20559;-69
2023/03/13 09:33:36;;;;;;;1.73;1.20;;;16.40;1.00;;;;;;5029590;28;20933;-70
2023/03/13 09:36:02;;;;;;;1.80;1.20;;;16.40;1.00;;;;;;5021133;28;20508;-69
2023/03/13 09:38:28;;;;;;;1.33;1.17;;;16.20;1.00;;;;;;5033412;28;20185;-70
2023/03/13 09:40:54;;;;;;;1.60;1.33;;;15.70;1.00;;;;;;5033091;28;20201;-70
2023/03/13 09:43:46;;;;;;;2.60;1.10;;;15.70;1.00;;;;;;5033705;28;20181;-70
2023/03/13 09:46:22;;;;;;;3.03;1.50;;;15.60;1.00;;;;;;5021232;28;20535;-70
2023/03/13 09:48:57;;;;;;;1.90;1.40;;;15.60;1.00;;;;;;5033225;28;20493;-69
2023/03/13 09:51:25;;;;;;;4.87;1.50;;;15.60;1.00;;;;;;5033317;28;20937;-70
2023/03/13 09:54:12;;;;;;;2.47;1.47;;;15.50;1.00;;;;;;5033224;28;20427;-69
2023/03/13 09:56:46;;;;;;;1.60;1.50;;;15.50;1.00;;;;;;5032540;28;20452;-69
2023/03/13 09:59:28;;;;;;;2.47;1.40;;;15.40;1.00;;;;;;5033164;28;20534;-71
2023/03/13 10:01:57;;;;;;;1.60;1.20;;;15.20;1.00;;;;;;5032990;28;20826;-71
2023/03/13 10:04:28;;;;;;;4.50;1.67;;;15.30;1.00;;;;;;5033129;28;20424;-71
2023/03/13 10:06:54;;;;;;;3.63;2.17;;;15.30;1.00;;;;;;5032833;28;20806;-71
2023/03/13 10:09:31;;;;;;;1.70;1.40;;;15.30;1.00;;;;;;5033009;28;20416;-71
2023/03/13 10:12:22;;;;;;;2.03;1.30;;;15.50;1.00;;;;;;5033174;28;20260;-71
2023/03/13 10:15:15;;;;;;;1.77;1.40;;;15.50;1.00;;;;;;5032512;28;20424;-71
2023/03/13 10:17:41;;;;;;;1.63;1.43;;;15.40;1.00;;;;;;5032430;28;20448;-71
2023/03/13 10:20:27;;;;;;;3.30;1.60;;;15.50;1.00;;;;;;5032947;28;20978;-71
2023/03/13 10:23:05;;;;;;;4.13;1.70;;;15.60;1.00;;;;;;5032807;28;20193;-71
2023/03/13 10:25:32;;;;;;;4.97;1.90;;;15.80;1.00;;;;;;5032837;28;20542;-71
2023/03/13 10:27:58;;;;;;;5.80;1.70;;;15.90;1.00;;;;;;5031571;28;20428;-71
2023/03/13 10:30:27;;;;;;;2.13;1.63;;;16.20;1.00;;;;;;5030871;28;20432;-71
2023/03/13 10:32:56;;;;;;;4.30;1.83;;;16.30;1.00;;;;;;5032372;28;20455;-71
2023/03/13 10:35:32;;;;;;;3.13;1.83;;;16.70;1.00;;;;;;5032463;28;20421;-72
2023/03/13 10:38:04;;;;;;;3.40;1.70;;;17.30;1.00;;;;;;5032354;28;20926;-72
2023/03/13 10:40:31;;;;;;;1.70;1.40;;;17.50;1.00;;;;;;5032196;28;20452;-72
2023/03/13 10:43:03;;;;;;;1.70;1.43;;;17.40;1.00;;;;;;5032178;28;20432;-71
2023/03/13 10:45:36;;;;;;;2.67;2.03;;;17.40;1.00;;;;;;5032426;28;20428;-71
2023/03/13 10:48:14;;;;;;;3.03;1.83;;;17.40;1.00;;;;;;5031967;28;20511;-71
2023/03/13 10:50:45;;;;;;;4.33;1.90;;;17.70;1.00;;;;;;5032436;28;20468;-72
2023/03/13 10:53:28;;;;;;;3.63;1.90;;;17.40;1.00;;;;;;5031915;28;20433;-71
2023/03/13 10:56:10;;;;;;;5.63;2.10;;;17.60;1.00;;;;;;5031572;28;20845;-72
2023/03/13 10:58:48;;;;;;;4.80;2.00;;;18.10;1.00;;;;;;5032288;28;20938;-72
2023/03/13 11:01:30;;;;;;;3.20;1.90;;;18.30;1.00;;;;;;5031811;28;20499;-72
2023/03/13 11:03:59;;;;;;;3.00;1.53;;;19.00;1.00;;;;;;5031982;28;20574;-72
2023/03/13 11:06:30;;;;;;;3.40;1.60;;;19.40;1.00;;;;;;5030438;28;20475;-72
2023/03/13 11:09:16;;;;;;;4.53;2.30;;;20.20;1.00;;;;;;5031663;28;20473;-71
2023/03/13 11:11:53;;;;;;;3.57;1.67;;;21.30;1.00;;;;;;5031802;28;20467;-72
2023/03/13 11:14:22;;;;;;;4.20;1.80;;;22.90;1.00;;;;;;5032181;28;20833;-72
2023/03/13 11:16:54;;;;;;;3.33;1.70;;;23.30;1.00;;;;;;5032393;28;20501;-72
2023/03/13 11:19:50;;;;;;;3.33;1.70;;;22.80;1.00;;;;;;5031116;28;20424;-72
2023/03/13 11:22:39;;;;;;;4.10;1.97;;;22.50;1.00;;;;;;5024958;28;20996;-72
2023/03/13 11:25:13;;;;;;;3.30;1.80;;;22.40;1.00;;;;;;5017382;28;20456;-72
2023/03/13 11:27:54;;;;;;;3.30;1.83;;;21.80;1.00;;;;;;5032226;28;20498;-72
2023/03/13 11:30:57;;;;;;;3.80;1.90;;;21.10;1.00;;;;;;5030184;28;20518;-72
2023/03/13 11:33:46;;;;;;;4.37;2.10;;;20.50;1.00;;;;;;5031372;28;20412;-72
2023/03/13 11:36:27;;;;;;;3.43;1.70;;;20.60;1.00;;;;;;5022177;28;20479;-72
2023/03/13 11:39:32;;;;;;;3.10;2.00;;;20.40;1.00;;;;;;5031098;28;20423;-70
2023/03/13 11:42:09;;;;;;;4.17;1.97;;;19.70;1.00;;;;;;5031249;28;20503;-72
2023/03/13 11:45:08;;;;;;;6.53;2.20;;;19.40;1.00;;;;;;5031547;28;20946;-71
2023/03/13 11:48:03;;;;;;;3.50;1.90;;;19.30;1.00;;;;;;5026977;28;20446;-72
2023/03/13 11:50:41;;;;;;;5.80;2.10;;;19.30;1.00;;;;;;5031175;28;20437;-72
2023/03/13 11:53:55;;;;;;;3.70;2.00;;;19.60;1.00;;;;;;5031213;28;20409;-72
2023/03/13 11:56:54;;;;;;;3.13;1.93;;;20.50;1.00;;;;;;5024760;28;20474;-72
2023/03/13 11:59:57;;;;;;;3.23;2.10;;;21.80;1.00;;;;;;5031113;28;20412;-72
2023/03/13 12:02:30;;;;;;;3.63;2.07;;;22.80;1.00;;;;;;5030802;28;20463;-72
2023/03/13 12:05:02;;;;;;;6.53;2.63;;;23.70;1.00;;;;;;5030920;28;20432;-72
2023/03/13 12:07:40;;;;;;;6.07;2.30;;;25.60;1.00;;;;;;5031314;28;20894;-73
2023/03/13 12:10:11;;;;;;;3.37;1.90;;;27.10;1.00;;;;;;5030462;28;20450;-73
2023/03/13 12:12:53;;;;;;;3.17;1.83;;;28.00;1.00;;;;;;5030984;28;20735;-73
2023/03/13 12:15:26;;;;;;;8.10;2.40;;;27.00;1.00;;;;;;5030693;28;20420;-72
2023/03/13 12:18:08;;;;;;;5.20;2.03;;;26.00;1.00;;;;;;5030472;28;20489;-72
2023/03/13 12:20:48;;;;;;;4.77;1.90;;;26.00;1.00;;;;;;5030301;28;20976;-72
2023/03/13 12:23:38;;;;;;;4.47;2.13;;;25.50;1.00;;;;;;5023344;28;20408;-72
2023/03/13 12:26:14;;;;;;;3.30;2.10;;;25.00;1.00;;;;;;5029953;28;20471;-72
2023/03/13 12:28:44;;;;;;;5.80;2.00;;;23.60;1.00;;;;;;5028277;28;20427;-73
2023/03/13 12:31:35;;;;;;;2.87;1.90;;;22.60;1.00;;;;;;5029608;28;20536;-72
2023/03/13 12:34:09;;;;;;;4.50;1.93;;;23.30;1.00;;;;;;5030157;28;20450;-72
2023/03/13 12:37:19;;;;;;;3.90;2.07;;;23.80;1.00;;;;;;5030293;28;20996;-72
2023/03/13 12:40:00;;;;;;;3.30;1.83;;;23.60;1.00;;;;;;5026717;28;20443;-72
2023/03/13 12:42:43;;;;;;;2.97;1.97;;;23.30;1.00;;;;;;5029406;28;20466;-72
2023/03/13 12:45:16;;;;;;;3.60;2.03;;;22.40;1.00;;;;;;5027595;28;20419;-72
2023/03/13 12:48:19;;;;;;;6.70;2.20;;;22.10;1.00;;;;;;5030388;28;20863;-72
2023/03/13 12:50:55;;;;;;;3.00;1.90;;;21.60;1.00;;;;;;5028756;28;20447;-70
2023/03/13 12:53:40;;;;;;;4.77;2.10;;;20.90;1.00;;;;;;5023368;28;20934;-70
2023/03/13 12:56:30;;;;;;;3.20;1.90;;;20.60;1.00;;;;;;5029198;28;20816;-70
2023/03/13 12:59:02;;;;;;;4.80;2.10;;;20.60;1.00;;;;;;5080616;22;21172;-69
2023/03/13 13:01:44;;;;;;;7.70;2.50;;;20.60;1.00;;;;;;5028478;28;20510;-69
2023/03/13 13:04:27;;;;;;;7.03;2.57;;;20.90;1.00;;;;;;5029299;28;20420;-69
2023/03/13 13:06:55;;;;;;;4.33;1.93;;;20.90;1.00;;;;;;5029394;28;20508;-70
2023/03/13 13:09:28;;;;;;;3.80;2.37;;;21.20;1.00;;;;;;5029995;28;20444;-69
2023/03/13 13:12:18;;;;;;;4.67;2.43;;;21.40;1.00;;;;;;5029203;28;20439;-71